Vivien A — TCYC4 — position and weather

sailwx.info

Track history (hours):
 
Tides and Currents Weather Stations Pressure Air Temp Water Temp Dewpoint Dewpoint Depression Visibility Wind Speed Wind Dir Waves Ship Positions

Vivien A

Last reported at 2015-Feb-08 17:33 UTC. Time now 2015-Mar-06 21:39 UTC.
Position N 07°44' W 014°45'.
Warning: this ship's position is 26 days out of date.

Length 210 m; draft 9.9 m.

Type: Ship (hazmat cat A). MMSI: 271040635.

Date/timePositionNaut miles runAvg speedWind from/ knotsBaromVisibWave heightAir tempDewpointWater temp
2015-Feb-08 17:33N 07°44' W 014°45'1413.8
2015-Feb-08 16:33N 07°52' W 014°56'1313.3
2015-Feb-08 15:33N 07°60' W 015°07'1110.6
2015-Feb-08 14:33N 08°06' W 015°15'1010.4
2015-Feb-08 13:33N 08°12' W 015°24'9110.1
2015-Feb-08 04:32N 09°22' W 016°24'1010.2
2015-Feb-08 03:33N 09°29' W 016°30'12410.3
2015-Feb-07 15:33N 11°08' W 017°46'1010.6
2015-Feb-07 14:33N 11°17' W 017°52'3510.3
2015-Feb-07 11:12N 11°51' W 017°58'1710.5
2015-Feb-07 09:33N 12°09' W 017°60'7410.6
2015-Feb-07 02:32N 13°23' W 018°00'  
2015-Jan-31 19:06N 36°01' W 005°25'5 8.4
2015-Jan-31 18:33N 36°06' W 005°23'3 2.4
2015-Jan-31 17:08N 36°08' W 005°26'0 0.0
2015-Jan-31 15:26N 36°08' W 005°26'0 0.0
2015-Jan-31 14:26N 36°08' W 005°26'0 0.0
2015-Jan-31 13:32N 36°08' W 005°26'0 0.0
2015-Jan-31 12:32N 36°08' W 005°26'0 0.0
2015-Jan-31 11:32N 36°08' W 005°26'0 0.0
2015-Jan-31 10:29N 36°08' W 005°26'0 0.0
2015-Jan-31 08:32N 36°08' W 005°26'0 0.0
2015-Jan-31 05:14N 36°08' W 005°26'0 0.0
2015-Jan-31 03:23N 36°08' W 005°26'0 0.0
2015-Jan-31 02:26N 36°08' W 005°26'0 0.0
2015-Jan-31 01:32N 36°08' W 005°26'0 0.0
2015-Jan-31 00:32N 36°08' W 005°26'0 0.0
2015-Jan-30 23:29N 36°08' W 005°26'2 1.5
2015-Jan-30 22:20N 36°09' W 005°24'5 5.9
2015-Jan-30 21:29N 36°04' W 005°22'10 9.7
2015-Jan-30 20:29N 35°57' W 005°30'  
Track history (hours):
 
Tides and Currents Weather Stations Pressure Air Temp Water Temp Dewpoint Dewpoint Depression Visibility Wind Speed Wind Dir Waves Ship Positions

Vivien A

Last reported at 2015-Feb-08 17:33 UTC. Time now 2015-Mar-06 21:39 UTC.
Position N 07°44' W 014°45'.
Warning: this ship's position is 26 days out of date.

Length 210 m; draft 9.9 m.

Type: Ship (hazmat cat A). MMSI: 271040635.

Date/timePositionNaut miles runAvg speedWind from/ knotsBaromVisibWave heightAir tempDewpointWater temp
2015-Feb-08 17:33N 07°44' W 014°45'1413.8
2015-Feb-08 16:33N 07°52' W 014°56'1313.3
2015-Feb-08 15:33N 07°60' W 015°07'1110.6
2015-Feb-08 14:33N 08°06' W 015°15'1010.4
2015-Feb-08 13:33N 08°12' W 015°24'9110.1
2015-Feb-08 04:32N 09°22' W 016°24'1010.2
2015-Feb-08 03:33N 09°29' W 016°30'12410.3
2015-Feb-07 15:33N 11°08' W 017°46'1010.6
2015-Feb-07 14:33N 11°17' W 017°52'3510.3
2015-Feb-07 11:12N 11°51' W 017°58'1710.5
2015-Feb-07 09:33N 12°09' W 017°60'7410.6
2015-Feb-07 02:32N 13°23' W 018°00'  
2015-Jan-31 19:06N 36°01' W 005°25'5 8.4
2015-Jan-31 18:33N 36°06' W 005°23'3 2.4
2015-Jan-31 17:08N 36°08' W 005°26'0 0.0
2015-Jan-31 15:26N 36°08' W 005°26'0 0.0
2015-Jan-31 14:26N 36°08' W 005°26'0 0.0
2015-Jan-31 13:32N 36°08' W 005°26'0 0.0
2015-Jan-31 12:32N 36°08' W 005°26'0 0.0
2015-Jan-31 11:32N 36°08' W 005°26'0 0.0
2015-Jan-31 10:29N 36°08' W 005°26'0 0.0
2015-Jan-31 08:32N 36°08' W 005°26'0 0.0
2015-Jan-31 05:14N 36°08' W 005°26'0 0.0
2015-Jan-31 03:23N 36°08' W 005°26'0 0.0
2015-Jan-31 02:26N 36°08' W 005°26'0 0.0
2015-Jan-31 01:32N 36°08' W 005°26'0 0.0
2015-Jan-31 00:32N 36°08' W 005°26'0 0.0
2015-Jan-30 23:29N 36°08' W 005°26'2 1.5
2015-Jan-30 22:20N 36°09' W 005°24'5 5.9
2015-Jan-30 21:29N 36°04' W 005°22'10 9.7
2015-Jan-30 20:29N 35°57' W 005°30'  

Dump ship's entire track history